Time;durP1;ratioP1;P1;durP2;ratioP2;P2;SDS_P1;SDS_P2;PMS_P1;PMS_P2;Temp;Humidity;BMP_temperature;BMP_pressure;BME280_temperature;BME280_humidity;BME280_pressure;Samples;Min_cycle;Max_cycle;Signal;HPM_P1;HPM_P2
2021/07/17 00:01:16;;;;;;;3.97;1.40;;;;;;;22.93;62.05;100997.84;4993629;28;20096;-64
2021/07/17 00:03:43;;;;;;;2.95;1.75;;;;;;;22.92;62.06;101010.38;4993557;28;20051;-64
2021/07/17 00:06:10;;;;;;;2.30;1.70;;;;;;;22.92;62.10;101004.19;4993617;28;20541;-64
2021/07/17 00:08:36;;;;;;;2.75;1.30;;;;;;;22.88;62.10;101008.19;4993370;28;20058;-64
2021/07/17 00:11:04;;;;;;;1.60;1.40;;;;;;;22.87;62.22;101002.00;4993528;28;20483;-64
2021/07/17 00:13:31;;;;;;;3.33;1.50;;;;;;;22.85;62.49;100995.97;4993536;28;20046;-64
2021/07/17 00:15:59;;;;;;;4.88;1.83;;;;;;;22.85;62.67;101001.31;4993202;28;20133;-64
2021/07/17 00:18:26;;;;;;;2.78;1.58;;;;;;;22.85;62.71;101003.16;4993448;28;20057;-64
2021/07/17 00:20:53;;;;;;;2.30;1.48;;;;;;;22.82;62.81;101001.66;4993225;28;20042;-64
2021/07/17 00:23:20;;;;;;;2.78;1.67;;;;;;;22.80;62.83;101006.31;4993193;28;20077;-64
2021/07/17 00:25:53;;;;;;;1.77;1.38;;;;;;;22.81;63.12;101005.31;4993172;28;20042;-64
2021/07/17 00:28:20;;;;;;;2.75;1.60;;;;;;;22.81;62.86;101008.00;4993215;28;20046;-64
2021/07/17 00:30:47;;;;;;;3.72;1.40;;;;;;;22.84;62.87;101005.00;4993113;28;20100;-64
2021/07/17 00:33:14;;;;;;;2.47;1.15;;;;;;;22.82;62.77;101015.03;4993051;28;20550;-64
2021/07/17 00:35:41;;;;;;;2.13;1.52;;;;;;;22.81;62.64;101016.03;4993242;28;20101;-64
2021/07/17 00:38:07;;;;;;;3.40;1.60;;;;;;;22.82;62.81;101009.69;4993132;28;20050;-64
2021/07/17 00:40:34;;;;;;;3.97;1.70;;;;;;;22.79;62.73;101007.31;4992823;28;20380;-64
2021/07/17 00:43:01;;;;;;;3.22;1.38;;;;;;;22.76;63.12;100996.94;4992996;28;20118;-64
2021/07/17 00:45:28;;;;;;;6.45;1.60;;;;;;;22.74;63.17;101010.50;4992916;28;20094;-64
2021/07/17 00:47:54;;;;;;;3.03;2.00;;;;;;;22.71;63.29;101000.09;4992814;28;20054;-64
2021/07/17 00:50:22;;;;;;;2.38;1.50;;;;;;;22.73;63.38;100999.94;4993196;28;20061;-64
2021/07/17 00:52:49;;;;;;;4.80;1.50;;;;;;;22.71;63.36;100996.59;4992982;28;20093;-64
2021/07/17 00:55:18;;;;;;;3.20;1.20;;;;;;;22.73;63.51;100997.25;4992997;28;20046;-64
2021/07/17 00:57:47;;;;;;;4.32;1.27;;;;;;;22.73;63.40;100992.75;4992730;28;20463;-64
2021/07/17 01:00:16;;;;;;;2.67;1.48;;;;;;;22.72;63.41;100998.28;4992837;28;20054;-64
2021/07/17 01:02:46;;;;;;;7.20;2.00;;;;;;;22.68;63.69;101000.44;4992745;28;20065;-64
2021/07/17 01:05:15;;;;;;;3.60;1.42;;;;;;;22.68;64.03;100989.72;4992872;28;20248;-64
2021/07/17 01:07:46;;;;;;;4.07;1.65;;;;;;;22.60;64.34;100987.00;4992746;28;20054;-65
2021/07/17 01:10:16;;;;;;;6.43;1.88;;;;;;;22.62;64.26;100999.22;4992493;28;20483;-64
2021/07/17 01:12:43;;;;;;;3.40;1.70;;;;;;;22.63;64.06;100998.22;4992684;28;20046;-64
2021/07/17 01:15:10;;;;;;;5.10;1.85;;;;;;;22.63;64.30;100992.88;4992463;28;20058;-64
2021/07/17 01:17:37;;;;;;;2.95;2.35;;;;;;;22.57;64.28;100987.34;4992604;28;20517;-64
2021/07/17 01:20:08;;;;;;;3.03;1.95;;;;;;;22.54;64.27;100991.16;4992999;28;20051;-64
2021/07/17 01:22:39;;;;;;;2.45;1.67;;;;;;;22.58;64.48;100981.81;4992657;28;20046;-64
2021/07/17 01:25:19;;;;;;;3.40;1.88;;;;;;;22.60;64.34;100987.00;4992821;28;20410;-64
2021/07/17 01:27:48;;;;;;;3.50;1.70;;;;;;;22.58;64.21;100984.50;4992530;28;20431;-64
2021/07/17 01:30:19;;;;;;;4.22;1.85;;;;;;;22.60;64.17;100987.00;4992560;28;20458;-64
2021/07/17 01:32:46;;;;;;;3.78;1.80;;;;;;;22.60;63.85;100987.00;4992430;28;20073;-64
2021/07/17 01:35:14;;;;;;;4.22;2.00;;;;;;;22.57;64.12;100988.16;4992972;28;20104;-64
2021/07/17 01:37:42;;;;;;;3.53;1.50;;;;;;;22.51;64.38;100988.78;4996437;28;20054;-64
2021/07/17 01:40:18;;;;;;;4.47;1.90;;;;;;;22.49;64.66;100988.13;4996353;28;20046;-64
2021/07/17 01:42:52;;;;;;;7.30;1.80;;;;;;;22.41;64.57;100980.06;4996206;28;20491;-64
2021/07/17 01:45:24;;;;;;;5.78;2.30;;;;;;;22.47;64.61;100979.41;4996301;28;20046;-64
2021/07/17 01:47:56;;;;;;;3.83;1.65;;;;;;;22.51;64.30;100975.41;4996116;28;20052;-64
2021/07/17 01:50:28;;;;;;;5.43;2.00;;;;;;;22.52;64.31;100973.59;4995930;28;20487;-64
2021/07/17 01:52:55;;;;;;;4.25;1.83;;;;;;;22.48;64.28;100967.72;4996041;28;20129;-64
2021/07/17 01:55:21;;;;;;;6.50;1.95;;;;;;;22.48;64.45;100965.06;4996115;28;20061;-64
2021/07/17 01:57:49;;;;;;;4.30;1.98;;;;;;;22.53;64.40;100964.59;4996151;28;20042;-63
2021/07/17 02:00:20;;;;;;;4.68;2.13;;;;;;;22.54;64.33;100966.25;4996014;28;20487;-64
2021/07/17 02:02:47;;;;;;;2.42;1.83;;;;;;;22.56;63.96;100969.59;4995822;28;20088;-64
2021/07/17 02:05:15;;;;;;;4.50;1.73;;;;;;;22.58;63.83;100963.09;4996021;28;20553;-64
2021/07/17 02:07:44;;;;;;;3.03;1.60;;;;;;;22.55;63.87;100957.22;4995762;28;20049;-64
2021/07/17 02:10:13;;;;;;;3.25;2.05;;;;;;;22.55;63.79;100959.91;4995702;28;20109;-64
2021/07/17 02:12:55;;;;;;;3.47;1.65;;;;;;;22.56;63.95;100954.38;4995611;28;20455;-64
2021/07/17 02:15:21;;;;;;;4.82;2.13;;;;;;;22.58;64.27;100952.41;4995358;28;20085;-64
2021/07/17 02:17:49;;;;;;;4.40;2.17;;;;;;;22.55;64.48;100942.03;4995538;28;20085;-64
2021/07/17 02:20:16;;;;;;;7.45;1.98;;;;;;;22.53;64.68;100929.81;4995644;28;20051;-64
2021/07/17 02:22:42;;;;;;;5.45;2.08;;;;;;;22.49;64.63;100926.63;4995438;28;20093;-64
2021/07/17 02:25:10;;;;;;;3.50;1.90;;;;;;;22.48;64.70;100924.94;4995591;28;20050;-64
2021/07/17 02:27:36;;;;;;;2.13;1.73;;;;;;;22.49;64.70;100923.94;4995733;28;20074;-64
2021/07/17 02:30:05;;;;;;;2.90;1.83;;;;;;;22.47;64.65;100923.25;4995497;28;20086;-64
2021/07/17 02:32:31;;;;;;;3.38;1.98;;;;;;;22.45;64.62;100914.59;4995551;28;20050;-64
2021/07/17 02:35:02;;;;;;;2.13;1.80;;;;;;;22.39;64.90;100909.88;4995248;28;20116;-64
2021/07/17 02:37:28;;;;;;;3.22;1.92;;;;;;;22.40;64.69;100907.03;4995318;28;20050;-64
2021/07/17 02:39:55;;;;;;;2.10;1.85;;;;;;;22.36;64.79;100902.97;4995151;28;20050;-64
2021/07/17 02:42:22;;;;;;;2.75;1.75;;;;;;;22.35;64.93;100898.63;4995081;28;20396;-64
2021/07/17 02:44:49;;;;;;;4.47;1.80;;;;;;;22.37;65.00;100906.50;4995004;28;20549;-64
2021/07/17 02:47:16;;;;;;;3.65;1.80;;;;;;;22.36;64.86;100908.31;4993798;28;20109;-64
2021/07/17 02:49:43;;;;;;;3.38;1.73;;;;;;;22.27;64.74;100896.75;4994975;28;20050;-64
2021/07/17 02:52:10;;;;;;;2.75;1.60;;;;;;;22.28;65.10;100895.75;4995150;28;20046;-63
2021/07/17 02:54:36;;;;;;;2.00;1.52;;;;;;;22.23;65.07;100890.03;4994895;28;20046;-64
2021/07/17 02:57:03;;;;;;;2.78;1.80;;;;;;;22.21;64.85;100888.50;4993797;28;20479;-64
2021/07/17 02:59:30;;;;;;;2.75;1.50;;;;;;;22.19;64.91;100883.34;4994878;28;20051;-64
2021/07/17 03:01:57;;;;;;;1.73;1.55;;;;;;;22.17;65.00;100893.38;4993485;28;20105;-64
2021/07/17 03:04:24;;;;;;;2.40;2.10;;;;;;;22.13;64.99;100898.19;4990309;28;20050;-64
2021/07/17 03:06:51;;;;;;;3.65;1.40;;;;;;;22.10;65.18;100903.00;4991264;28;20502;-64
2021/07/17 03:09:17;;;;;;;2.08;1.50;;;;;;;22.10;65.18;100895.00;4991222;28;20046;-64
2021/07/17 03:11:44;;;;;;;32.38;4.28;;;;;;;22.05;65.15;100890.09;4991475;28;20042;-64
2021/07/17 03:14:11;;;;;;;36.92;5.88;;;;;;;22.05;64.81;100886.63;4991001;28;20100;-64
2021/07/17 03:16:38;;;;;;;27.48;3.67;;;;;;;21.99;64.81;100880.91;4990935;28;20128;-64
2021/07/17 03:19:05;;;;;;;14.15;2.47;;;;;;;21.97;64.74;100874.88;4991216;28;20482;-64
2021/07/17 03:21:31;;;;;;;7.82;1.70;;;;;;;22.00;64.42;100865.69;4991132;28;20058;-64
2021/07/17 03:23:58;;;;;;;25.67;3.47;;;;;;;21.96;64.50;100862.50;4991015;28;20446;-64
2021/07/17 03:26:24;;;;;;;22.40;3.92;;;;;;;21.90;64.67;100868.47;4990756;28;20561;-64
2021/07/17 03:28:53;;;;;;;16.80;2.33;;;;;;;21.93;64.31;100857.50;4991003;28;20054;-65
2021/07/17 03:31:31;;;;;;;7.70;1.80;;;;;;;21.89;64.22;100853.47;4990710;28;20093;-64
2021/07/17 03:33:59;;;;;;;4.40;1.88;;;;;;;21.89;64.48;100855.28;4990719;28;20046;-64
2021/07/17 03:36:26;;;;;;;5.22;1.80;;;;;;;21.85;64.40;100844.94;4990897;28;20482;-64
2021/07/17 03:38:54;;;;;;;2.20;1.48;;;;;;;21.83;64.57;100835.41;4990527;28;20046;-64
2021/07/17 03:41:20;;;;;;;2.42;1.55;;;;;;;21.75;64.69;100828.19;4990739;28;20058;-64
2021/07/17 03:43:48;;;;;;;1.73;1.50;;;;;;;21.74;64.73;100812.28;4990676;28;20058;-64
2021/07/17 03:46:15;;;;;;;2.55;1.35;;;;;;;21.72;64.95;100809.78;4990654;28;20546;-64
2021/07/17 03:48:42;;;;;;;3.72;1.40;;;;;;;21.67;64.93;100801.41;4990239;28;20141;-64
2021/07/17 03:51:08;;;;;;;2.60;1.55;;;;;;;21.69;65.19;100807.44;4990240;28;20097;-64
2021/07/17 03:53:35;;;;;;;2.58;1.60;;;;;;;21.71;64.96;100808.09;4990338;28;20054;-64
2021/07/17 03:56:01;;;;;;;1.38;1.10;;;;;;;21.65;65.40;100806.09;4990317;28;20054;-64
2021/07/17 03:58:28;;;;;;;1.23;1.08;;;;;;;21.63;65.33;100813.41;4989747;28;20478;-64
2021/07/17 04:00:55;;;;;;;3.05;1.60;;;;;;;21.64;64.91;100810.56;4990368;28;20100;-64
2021/07/17 04:03:23;;;;;;;2.38;1.30;;;;;;;21.66;64.64;100810.41;4989974;28;20054;-65
2021/07/17 04:05:51;;;;;;;1.20;1.08;;;;;;;21.66;64.75;100813.94;4990196;28;20274;-64
2021/07/17 04:08:17;;;;;;;4.13;1.25;;;;;;;21.66;64.60;100816.59;4990410;28;20054;-64
2021/07/17 04:10:44;;;;;;;2.53;0.88;;;;;;;21.72;64.39;100814.28;4990019;28;20053;-64
2021/07/17 04:13:11;;;;;;;3.08;1.05;;;;;;;21.73;63.95;100816.81;4990080;28;20092;-64
2021/07/17 04:15:38;;;;;;;1.85;1.00;;;;;;;21.76;63.72;100807.63;4989790;28;20645;-64
2021/07/17 04:18:05;;;;;;;4.53;1.30;;;;;;;21.76;63.75;100804.97;4990009;28;20100;-64
2021/07/17 04:20:31;;;;;;;1.50;1.20;;;;;;;21.74;63.95;100804.28;4989846;28;20446;-64
2021/07/17 04:22:58;;;;;;;2.08;1.13;;;;;;;21.71;63.86;100797.41;4989875;28;20096;-64
2021/07/17 04:25:25;;;;;;;1.58;1.27;;;;;;;21.67;64.19;100799.59;4990228;28;20097;-64
2021/07/17 04:27:51;;;;;;;1.45;1.10;;;;;;;21.71;64.05;100801.94;4989746;28;20183;-64
2021/07/17 04:30:18;;;;;;;4.57;0.93;;;;;;;21.72;64.03;100806.28;4989491;28;20054;-64
2021/07/17 04:32:45;;;;;;;3.90;1.20;;;;;;;21.69;63.77;100812.78;4989814;28;20054;-64
2021/07/17 04:35:11;;;;;;;1.38;0.95;;;;;;;21.73;63.88;100802.63;4989645;28;20051;-64
2021/07/17 04:37:38;;;;;;;1.83;1.02;;;;;;;21.74;63.88;100794.44;4989558;28;20050;-64
2021/07/17 04:40:05;;;;;;;2.30;1.10;;;;;;;21.66;64.01;100787.22;4989893;28;20104;-64
2021/07/17 04:42:32;;;;;;;5.40;1.05;;;;;;;21.58;64.39;100784.50;4989791;28;20073;-64
2021/07/17 04:44:59;;;;;;;2.40;0.85;;;;;;;21.59;64.46;100778.16;4989639;28;20511;-64
2021/07/17 04:47:25;;;;;;;3.38;1.02;;;;;;;21.58;64.52;100778.34;4989390;28;20094;-64
2021/07/17 04:49:54;;;;;;;2.85;1.08;;;;;;;21.59;64.35;100780.84;4989324;28;20475;-64
2021/07/17 04:52:21;;;;;;;1.88;0.77;;;;;;;21.57;64.54;100782.00;4989529;28;20060;-64
2021/07/17 04:54:47;;;;;;;4.00;0.90;;;;;;;21.59;64.51;100774.69;4989435;28;20065;-64
2021/07/17 04:57:14;;;;;;;0.85;0.80;;;;;;;21.58;64.52;100771.16;4989547;28;20054;-65
2021/07/17 04:59:40;;;;;;;0.70;0.70;;;;;;;21.53;64.53;100773.44;4989180;28;20108;-64
2021/07/17 05:02:07;;;;;;;1.67;0.70;;;;;;;21.54;64.49;100777.78;4989488;28;20046;-65
2021/07/17 05:04:34;;;;;;;1.13;0.73;;;;;;;21.49;64.38;100780.09;4989181;28;20050;-64
2021/07/17 05:07:00;;;;;;;4.22;0.95;;;;;;;21.50;64.58;100779.91;4989278;28;20077;-64
2021/07/17 05:09:27;;;;;;;2.05;0.77;;;;;;;21.52;64.52;100774.41;4989183;28;20546;-64
2021/07/17 05:11:53;;;;;;;2.45;0.90;;;;;;;21.59;63.98;100769.34;4992553;28;20564;-64
2021/07/17 05:14:21;;;;;;;1.85;0.60;;;;;;;21.64;63.66;100772.38;4993300;28;20050;-64
2021/07/17 05:16:48;;;;;;;1.38;0.60;;;;;;;21.73;63.51;100779.41;4993089;28;20051;-65
2021/07/17 05:19:17;;;;;;;1.05;0.70;;;;;;;21.77;63.15;100793.28;4993300;28;20050;-64
2021/07/17 05:21:44;;;;;;;1.58;0.50;;;;;;;21.81;63.02;100795.50;4993515;28;20101;-64
2021/07/17 05:24:10;;;;;;;1.17;0.70;;;;;;;21.87;62.88;100796.69;4993100;28;20046;-64
2021/07/17 05:26:37;;;;;;;2.15;0.60;;;;;;;21.92;63.05;100793.53;4992927;28;20055;-64
2021/07/17 05:29:03;;;;;;;1.52;0.60;;;;;;;21.92;62.97;100790.88;4993200;28;20170;-64
2021/07/17 05:31:30;;;;;;;0.80;0.52;;;;;;;21.94;62.87;100795.03;4993084;28;20054;-64
2021/07/17 05:33:57;;;;;;;3.42;1.40;;;;;;;21.97;62.77;100788.53;4991684;28;20104;-64
2021/07/17 05:36:23;;;;;;;1.38;0.70;;;;;;;22.08;62.74;100790.06;4993231;28;20097;-64
2021/07/17 05:38:50;;;;;;;2.88;1.08;;;;;;;22.16;62.53;100798.97;4993152;28;20069;-64
2021/07/17 05:41:16;;;;;;;2.75;1.35;;;;;;;22.25;62.69;100793.66;4992891;28;20059;-64
2021/07/17 05:43:43;;;;;;;2.45;1.08;;;;;;;22.30;62.44;100791.34;4992953;28;20054;-65
2021/07/17 05:46:10;;;;;;;2.65;0.90;;;;;;;22.36;62.14;100785.34;4993099;28;20105;-64
2021/07/17 05:48:36;;;;;;;3.65;0.90;;;;;;;22.39;62.26;100781.53;4992630;28;20495;-64
2021/07/17 05:51:06;;;;;;;1.63;0.70;;;;;;;22.46;62.08;100782.53;4992604;28;20054;-64
2021/07/17 05:53:32;;;;;;;2.05;0.82;;;;;;;22.51;62.02;100777.53;4992566;28;20050;-64
2021/07/17 05:55:59;;;;;;;1.35;0.88;;;;;;;22.60;62.02;100776.56;4992814;28;20132;-64
2021/07/17 05:58:26;;;;;;;1.70;0.80;;;;;;;22.72;61.63;100776.22;4992525;28;20085;-64
2021/07/17 06:00:53;;;;;;;2.85;1.10;;;;;;;22.86;61.36;100769.38;4992683;28;20104;-64
2021/07/17 06:03:19;;;;;;;1.90;0.82;;;;;;;23.08;60.74;100781.25;4992765;28;20042;-66
2021/07/17 06:05:46;;;;;;;2.65;0.82;;;;;;;23.32;60.10;100777.72;4992315;28;20134;-65
2021/07/17 06:08:13;;;;;;;1.38;1.10;;;;;;;23.56;59.47;100773.31;4992463;28;20053;-64
2021/07/17 06:10:39;;;;;;;3.65;0.82;;;;;;;23.64;59.38;100766.09;4992401;28;20147;-64
2021/07/17 06:13:07;;;;;;;0.73;0.57;;;;;;;23.62;59.34;100778.00;4992591;28;20046;-64
2021/07/17 06:15:33;;;;;;;0.80;0.60;;;;;;;23.55;59.24;100782.38;4991975;28;20104;-64
2021/07/17 06:18:00;;;;;;;1.23;0.82;;;;;;;23.50;59.14;100769.47;4992218;28;20042;-64
2021/07/17 06:20:27;;;;;;;2.15;1.50;;;;;;;23.47;58.85;100764.47;4992241;28;20051;-64
2021/07/17 06:22:53;;;;;;;2.80;1.48;;;;;;;23.43;58.81;100763.97;4992031;28;20108;-64
2021/07/17 06:25:20;;;;;;;1.38;0.68;;;;;;;23.42;58.44;100756.94;4992414;28;20100;-64
2021/07/17 06:27:47;;;;;;;5.72;1.00;;;;;;;23.39;58.37;100757.31;4991905;28;20096;-64
2021/07/17 06:30:14;;;;;;;2.10;0.70;;;;;;;23.43;58.41;100760.47;4992160;28;20616;-64
2021/07/17 06:32:41;;;;;;;1.75;0.60;;;;;;;23.46;58.33;100758.31;4991870;28;20042;-66
2021/07/17 06:35:08;;;;;;;1.63;0.52;;;;;;;23.54;57.70;100764.63;4991744;28;20483;-65
2021/07/17 06:37:40;;;;;;;4.13;0.80;;;;;;;23.67;57.15;100761.38;4991851;28;20059;-64
2021/07/17 06:40:15;;;;;;;3.17;0.50;;;;;;;23.84;56.92;100752.28;4992036;28;20104;-64
2021/07/17 06:42:47;;;;;;;1.15;0.77;;;;;;;23.91;56.48;100747.09;4991657;28;20100;-65
2021/07/17 06:45:16;;;;;;;3.78;0.70;;;;;;;23.95;56.52;100749.25;4991567;28;20050;-64
2021/07/17 06:47:43;;;;;;;1.98;0.50;;;;;;;23.99;56.17;100746.25;4991679;28;20108;-64
2021/07/17 06:50:15;;;;;;;0.93;0.40;;;;;;;24.02;56.14;100759.28;4991556;28;20097;-65
2021/07/17 06:52:42;;;;;;;2.45;0.40;;;;;;;24.01;56.05;100760.28;4991412;28;20042;-64
2021/07/17 06:55:10;;;;;;;2.22;0.60;;;;;;;23.98;56.12;100752.59;4991538;28;20086;-65
2021/07/17 06:57:38;;;;;;;1.92;0.43;;;;;;;24.00;56.21;100750.56;4991450;28;20124;-64
2021/07/17 07:00:07;;;;;;;3.50;0.70;;;;;;;24.01;56.16;100758.47;4991353;28;20466;-64
2021/07/17 07:02:34;;;;;;;2.85;0.70;;;;;;;24.05;56.43;100750.88;4991247;28;20050;-65
2021/07/17 07:05:02;;;;;;;3.67;0.60;;;;;;;24.06;56.29;100756.09;4991698;28;20438;-64
2021/07/17 07:07:28;;;;;;;1.45;0.68;;;;;;;24.10;56.48;100749.34;4991273;28;20065;-64
2021/07/17 07:09:55;;;;;;;1.40;0.40;;;;;;;24.12;56.67;100743.81;4990912;28;20058;-64
2021/07/17 07:12:22;;;;;;;1.65;0.70;;;;;;;24.11;56.76;100742.13;4991427;28;20051;-64
2021/07/17 07:14:48;;;;;;;2.65;0.63;;;;;;;24.12;56.73;100749.16;4991077;28;20174;-64
2021/07/17 07:17:15;;;;;;;1.40;0.57;;;;;;;24.11;56.82;100744.81;4991134;28;20050;-64
2021/07/17 07:19:42;;;;;;;1.33;0.50;;;;;;;24.12;56.56;100741.97;4991222;28;20407;-64
2021/07/17 07:22:09;;;;;;;4.00;0.80;;;;;;;24.14;56.69;100755.19;4991426;28;20491;-64
2021/07/17 07:24:35;;;;;;;3.53;0.80;;;;;;;24.16;56.80;100746.97;4990734;28;20574;-65
2021/07/17 07:27:02;;;;;;;6.55;1.15;;;;;;;24.16;56.92;100749.66;4991277;28;20046;-64
2021/07/17 07:29:29;;;;;;;10.20;0.98;;;;;;;24.20;57.03;100748.28;4990941;28;20050;-64
2021/07/17 07:31:55;;;;;;;1.63;0.70;;;;;;;24.22;56.88;100743.59;4990640;28;20050;-64
2021/07/17 07:34:23;;;;;;;3.42;0.70;;;;;;;24.21;56.94;100750.78;4990230;28;20156;-62
2021/07/17 07:36:50;;;;;;;2.20;0.68;;;;;;;24.23;56.87;100743.41;4990740;28;20050;-63
2021/07/17 07:39:17;;;;;;;5.88;0.75;;;;;;;24.29;56.68;100755.28;4990556;28;20054;-63
2021/07/17 07:41:46;;;;;;;2.17;0.40;;;;;;;24.34;56.55;100758.28;4990506;28;20058;-62
2021/07/17 07:44:13;;;;;;;1.38;0.55;;;;;;;24.38;55.91;100754.22;4990564;28;20124;-63
2021/07/17 07:46:39;;;;;;;1.67;0.70;;;;;;;24.41;55.44;100753.84;4990341;28;20046;-62
2021/07/17 07:49:07;;;;;;;1.45;0.35;;;;;;;24.42;55.24;100757.38;4990436;28;20065;-64
2021/07/17 07:51:34;;;;;;;3.92;0.50;;;;;;;24.41;55.04;100763.75;4990264;28;20054;-64
2021/07/17 07:54:01;;;;;;;1.17;0.60;;;;;;;24.38;54.75;100758.72;4990497;28;20050;-62
2021/07/17 07:56:27;;;;;;;0.63;0.40;;;;;;;24.33;54.76;100753.91;4990511;28;20124;-62
2021/07/17 07:58:54;;;;;;;2.88;0.60;;;;;;;24.30;54.66;100748.88;4990298;28;20058;-62
2021/07/17 08:01:21;;;;;;;1.52;0.80;;;;;;;24.29;54.76;100744.56;4990497;28;20054;-64
2021/07/17 08:03:47;;;;;;;4.20;1.02;;;;;;;24.29;55.00;100745.38;4990046;28;20514;-64
2021/07/17 08:06:15;;;;;;;16.08;3.53;;;;;;;24.31;55.08;100733.66;4990394;28;20046;-62
2021/07/17 08:08:42;;;;;;;4.22;0.63;;;;;;;24.32;54.97;100738.00;4989952;28;20046;-62
2021/07/17 08:11:09;;;;;;;3.28;0.68;;;;;;;24.32;54.97;100740.69;4990111;28;20050;-62
2021/07/17 08:13:36;;;;;;;4.65;2.03;;;;;;;24.34;55.02;100741.34;4989986;28;20046;-62
2021/07/17 08:16:02;;;;;;;5.00;1.10;;;;;;;24.34;55.18;100741.34;4989986;28;20058;-62
2021/07/17 08:18:32;;;;;;;7.22;1.50;;;;;;;24.35;55.23;100748.38;4990334;28;20411;-62
2021/07/17 08:20:59;;;;;;;1.75;0.85;;;;;;;24.36;55.47;100747.38;4989869;28;20054;-62
2021/07/17 08:23:26;;;;;;;3.60;0.60;;;;;;;24.35;55.71;100745.69;4989870;28;20054;-62
2021/07/17 08:25:52;;;;;;;4.25;0.70;;;;;;;24.33;55.73;100761.97;4989848;28;20081;-63
2021/07/17 08:28:19;;;;;;;3.50;0.80;;;;;;;24.29;55.75;100757.97;4989922;28;20050;-62
2021/07/17 08:30:46;;;;;;;2.53;0.60;;;;;;;24.25;55.76;100762.00;4989548;28;20050;-62
2021/07/17 08:33:12;;;;;;;2.78;1.20;;;;;;;24.21;55.78;100766.88;4989781;28;20186;-62
2021/07/17 08:35:39;;;;;;;8.07;1.70;;;;;;;24.17;56.60;100770.94;4989841;28;20073;-62
2021/07/17 08:38:08;;;;;;;3.63;0.95;;;;;;;24.15;56.57;100769.44;4989651;28;20050;-64
2021/07/17 08:40:35;;;;;;;2.33;0.80;;;;;;;24.12;56.58;100754.53;4989556;28;20097;-62
2021/07/17 08:43:01;;;;;;;5.40;1.33;;;;;;;24.11;57.00;100747.50;4989779;28;20046;-62
2021/07/17 08:45:30;;;;;;;4.70;0.80;;;;;;;24.12;57.32;100749.16;4989605;28;20046;-62
2021/07/17 08:47:57;;;;;;;1.33;0.80;;;;;;;24.11;57.71;100755.53;4989543;28;20050;-62
2021/07/17 08:50:26;;;;;;;3.30;0.75;;;;;;;24.14;57.51;100755.19;4989471;28;20050;-62
2021/07/17 08:52:56;;;;;;;3.72;0.90;;;;;;;24.21;57.85;100752.66;4989393;28;20645;-62
2021/07/17 08:55:26;;;;;;;3.25;0.88;;;;;;;24.25;57.74;100754.81;4989374;28;20046;-63
2021/07/17 08:57:53;;;;;;;1.80;0.80;;;;;;;24.29;57.43;100749.94;4989475;28;20046;-62
2021/07/17 09:00:27;;;;;;;1.52;0.85;;;;;;;24.36;57.09;100745.50;4989527;28;20046;-62
2021/07/17 09:03:01;;;;;;;2.53;0.90;;;;;;;24.41;56.82;100742.31;4989477;28;20050;-62
2021/07/17 09:05:32;;;;;;;0.80;0.77;;;;;;;24.47;56.43;100736.22;4989535;28;20466;-62
2021/07/17 09:07:59;;;;;;;6.20;0.95;;;;;;;24.58;55.82;100740.31;4989270;28;20050;-64
2021/07/17 09:10:43;;;;;;;1.63;0.80;;;;;;;24.67;55.47;100738.44;4989474;28;20042;-64
2021/07/17 09:13:23;;;;;;;2.05;0.95;;;;;;;24.72;54.93;100739.59;4989192;28;20097;-64
2021/07/17 09:15:50;;;;;;;3.17;0.75;;;;;;;24.74;54.63;100737.53;4989378;28;20454;-64
2021/07/17 09:18:40;;;;;;;2.72;0.70;;;;;;;24.75;54.41;100733.84;4989183;28;20042;-64
2021/07/17 09:21:12;;;;;;;2.45;0.88;;;;;;;24.76;54.38;100732.84;4989382;28;20046;-65
2021/07/17 09:24:03;;;;;;;3.40;1.05;;;;;;;24.76;54.36;100737.38;4989165;28;20054;-64
2021/07/17 09:26:36;;;;;;;3.38;1.00;;;;;;;24.76;54.40;100742.75;4978752;28;20050;-64
2021/07/17 09:29:03;;;;;;;5.00;1.38;;;;;;;24.78;54.40;100744.22;4989012;28;20050;-64
2021/07/17 09:31:36;;;;;;;2.50;1.15;;;;;;;24.77;54.53;100750.63;4988894;28;20411;-64
2021/07/17 09:34:12;;;;;;;4.40;1.10;;;;;;;24.79;54.70;100747.75;4988977;28;20520;-64
2021/07/17 09:36:58;;;;;;;4.47;1.27;;;;;;;24.77;55.06;100755.97;4989013;28;20046;-65
2021/07/17 09:39:40;;;;;;;3.95;1.45;;;;;;;24.73;55.41;100748.47;4985106;28;20047;-64
2021/07/17 09:42:13;;;;;;;7.60;1.17;;;;;;;24.70;55.87;100754.19;4989249;28;20046;-65
2021/07/17 09:44:40;;;;;;;4.90;1.20;;;;;;;24.71;56.00;100758.53;4989070;28;20416;-64
2021/07/17 09:47:21;;;;;;;2.05;0.95;;;;;;;24.73;55.99;100754.66;4989188;28;20047;-64
2021/07/17 09:49:49;;;;;;;6.38;1.40;;;;;;;24.74;56.43;100750.94;4988949;28;20546;-64
2021/07/17 09:52:19;;;;;;;3.95;1.33;;;;;;;24.77;56.07;100744.38;4988814;28;20085;-64
2021/07/17 09:55:05;;;;;;;4.00;1.20;;;;;;;24.82;56.43;100739.31;4988848;28;20054;-64
2021/07/17 09:57:33;;;;;;;4.07;1.27;;;;;;;24.85;56.28;100747.03;4991083;28;20046;-64
2021/07/17 10:00:03;;;;;;;4.70;1.25;;;;;;;24.92;56.34;100742.59;4992545;28;20128;-65
2021/07/17 10:02:30;;;;;;;3.28;1.10;;;;;;;25.03;56.11;100744.00;4992511;28;20462;-64
2021/07/17 10:04:57;;;;;;;3.35;1.50;;;;;;;25.13;56.03;100748.25;4992198;28;20101;-64
2021/07/17 10:07:24;;;;;;;4.47;1.42;;;;;;;25.19;55.60;100740.34;4992425;28;20047;-64
2021/07/17 10:09:51;;;;;;;3.85;1.50;;;;;;;25.25;55.51;100736.91;4992676;28;20047;-65
2021/07/17 10:12:32;;;;;;;3.00;1.50;;;;;;;25.34;55.16;100736.81;4992651;28;20050;-64
2021/07/17 10:15:00;;;;;;;5.97;2.10;;;;;;;25.43;55.16;100738.41;4992221;28;20129;-64
2021/07/17 10:17:37;;;;;;;6.90;1.77;;;;;;;25.49;55.43;100732.31;4992182;28;20093;-65
2021/07/17 10:20:08;;;;;;;5.07;1.55;;;;;;;25.55;55.25;100738.81;4992243;28;20464;-64
2021/07/17 10:22:36;;;;;;;1.83;1.48;;;;;;;25.74;54.65;100732.03;4992172;28;20054;-64
2021/07/17 10:25:08;;;;;;;3.08;1.27;;;;;;;25.89;54.51;100723.91;4992174;28;20100;-64
2021/07/17 10:27:38;;;;;;;3.88;1.52;;;;;;;26.00;54.37;100717.22;4992229;28;20058;-64
2021/07/17 10:30:07;;;;;;;3.35;1.13;;;;;;;26.12;54.09;100721.13;4992261;28;20059;-64
2021/07/17 10:32:49;;;;;;;5.43;2.08;;;;;;;26.22;53.59;100724.31;4991876;28;20129;-64
2021/07/17 10:35:15;;;;;;;3.65;1.40;;;;;;;26.22;53.18;100721.63;4992188;28;20058;-64
2021/07/17 10:37:48;;;;;;;3.85;1.40;;;;;;;26.28;52.80;100724.59;4992275;28;20054;-64
2021/07/17 10:40:17;;;;;;;2.25;1.45;;;;;;;26.37;52.52;100720.75;4992019;28;20050;-64
2021/07/17 10:42:55;;;;;;;4.05;1.52;;;;;;;26.46;51.98;100719.59;4991808;28;20046;-64
2021/07/17 10:45:33;;;;;;;3.33;1.58;;;;;;;26.54;51.52;100707.88;4991896;28;20403;-62
2021/07/17 10:48:01;;;;;;;3.45;1.73;;;;;;;26.51;51.71;100708.25;4991912;28;20573;-62
2021/07/17 10:50:36;;;;;;;5.68;1.77;;;;;;;26.48;51.85;100714.03;4991678;28;20411;-63
2021/07/17 10:53:02;;;;;;;3.47;1.60;;;;;;;26.39;52.03;100716.00;4991847;28;20062;-63
2021/07/17 10:55:32;;;;;;;7.10;2.13;;;;;;;26.29;52.21;100719.00;4991575;28;20136;-62
2021/07/17 10:58:24;;;;;;;4.18;1.50;;;;;;;26.20;52.60;100717.47;4991425;28;20047;-63
2021/07/17 11:00:53;;;;;;;3.03;1.45;;;;;;;26.14;52.74;100719.06;4991371;28;20073;-63
2021/07/17 11:03:24;;;;;;;4.00;1.80;;;;;;;26.10;52.78;100719.66;4991696;28;20510;-62
2021/07/17 11:05:51;;;;;;;7.05;1.67;;;;;;;26.10;52.95;100717.78;4991518;28;20074;-63
2021/07/17 11:08:38;;;;;;;4.57;1.65;;;;;;;26.07;52.87;100713.59;4990414;28;20594;-62
2021/07/17 11:11:26;;;;;;;2.95;1.40;;;;;;;26.05;52.49;100718.34;4991301;28;20046;-63
2021/07/17 11:14:17;;;;;;;2.17;1.30;;;;;;;26.02;52.36;100721.38;4991182;28;20043;-62
2021/07/17 11:16:46;;;;;;;4.57;1.50;;;;;;;26.00;52.22;100715.34;4991301;28;20061;-63
2021/07/17 11:19:29;;;;;;;6.75;1.90;;;;;;;26.00;52.17;100722.59;4991225;28;20129;-62
2021/07/17 11:22:09;;;;;;;4.10;1.90;;;;;;;26.00;52.24;100726.09;4990911;28;20052;-63
2021/07/17 11:24:35;;;;;;;3.70;1.83;;;;;;;26.03;52.40;100727.59;4990925;28;20098;-62
2021/07/17 11:27:15;;;;;;;3.60;1.85;;;;;;;26.03;52.84;100735.66;4990840;28;20050;-62
2021/07/17 11:29:47;;;;;;;6.25;1.83;;;;;;;26.02;52.95;100723.25;4990703;28;20054;-62
2021/07/17 11:32:16;;;;;;;3.42;1.63;;;;;;;26.05;52.99;100725.59;4990809;28;20086;-62